Time;durP1;ratioP1;P1;durP2;ratioP2;P2;SDS_P1;SDS_P2;PMS_P1;PMS_P2;Temp;Humidity;BMP_temperature;BMP_pressure;BME280_temperature;BME280_humidity;BME280_pressure;Samples;Min_cycle;Max_cycle;Signal;HPM_P1;HPM_P2
2022/12/27 00:01:37;;;;;;;14.63;6.63;;;;;;;1.10;100.00;102162.38;4956856;29;20038;-83
2022/12/27 00:04:03;;;;;;;14.00;6.32;;;;;;;1.25;100.00;102193.69;4957345;29;20053;-85
2022/12/27 00:06:29;;;;;;;14.35;6.75;;;;;;;1.24;100.00;102192.00;4957201;29;20034;-85
2022/12/27 00:08:55;;;;;;;13.95;6.32;;;;;;;1.23;100.00;102195.41;4957143;29;20455;-86
2022/12/27 00:11:23;;;;;;;14.82;6.50;;;;;;;1.07;100.00;102169.13;4956930;29;20479;-86
2022/12/27 00:13:49;;;;;;;14.63;7.03;;;;;;;1.07;100.00;102169.97;4957072;29;20106;-87
2022/12/27 00:16:17;;;;;;;17.20;6.38;;;;;;;1.04;100.00;102157.28;4956746;29;20054;-85
2022/12/27 00:18:43;;;;;;;16.38;6.45;;;;;;;1.31;100.00;102203.88;4957107;29;20046;-87
2022/12/27 00:21:11;;;;;;;14.10;6.60;;;;;;;1.29;100.00;102201.34;4957128;29;20023;-85
2022/12/27 00:23:39;;;;;;;12.98;6.00;;;;;;;1.28;100.00;102204.72;4956870;29;20126;-85
2022/12/27 00:26:09;;;;;;;12.15;6.03;;;;;;;1.17;100.00;102182.69;4956732;29;20057;-82
2022/12/27 00:28:35;;;;;;;15.38;6.22;;;;;;;1.29;100.00;102193.69;4956740;29;20118;-84
2022/12/27 00:31:00;;;;;;;18.30;7.10;;;;;;;1.25;100.00;102186.06;4956416;29;20111;-84
2022/12/27 00:33:27;;;;;;;15.02;6.55;;;;;;;1.39;100.00;102208.09;4956493;29;20066;-84
2022/12/27 00:35:53;;;;;;;13.38;6.35;;;;;;;1.38;100.00;102208.94;4956936;29;20087;-86
2022/12/27 00:38:20;;;;;;;15.10;6.28;;;;;;;1.40;100.00;102209.78;4956849;29;20471;-80
2022/12/27 00:40:46;;;;;;;18.25;6.60;;;;;;;1.43;100.00;102208.91;4956643;29;20035;-79
2022/12/27 00:43:11;;;;;;;16.42;7.30;;;;;;;1.33;100.00;102197.91;4956613;29;20041;-84
2022/12/27 00:45:36;;;;;;;15.23;6.05;;;;;;;1.43;100.00;102219.09;4938696;29;20041;-84
2022/12/27 00:48:02;;;;;;;11.63;5.85;;;;;;;1.23;100.00;102183.53;4956317;29;20390;-85
2022/12/27 00:50:27;;;;;;;11.90;5.65;;;;;;;1.42;100.00;102223.34;4956343;29;20023;-84
2022/12/27 00:52:52;;;;;;;12.38;6.03;;;;;;;1.42;100.00;102223.34;4956593;29;20459;-83
2022/12/27 00:55:18;;;;;;;13.57;5.90;;;;;;;1.46;100.00;102225.88;4956200;29;20491;-86
2022/12/27 00:57:43;;;;;;;13.32;6.35;;;;;;;1.49;100.00;102224.19;4956159;29;20031;-84
2022/12/27 01:00:09;;;;;;;15.27;5.90;;;;;;;1.34;100.00;102201.31;4956225;29;20066;-84
2022/12/27 01:02:35;;;;;;;14.57;6.72;;;;;;;1.41;100.00;102219.09;4955172;28;20031;-83
2022/12/27 01:05:00;;;;;;;15.02;6.53;;;;;;;1.29;100.00;102213.22;4956207;29;20027;-84
2022/12/27 01:07:26;;;;;;;13.93;5.60;;;;;;;1.21;100.00;102203.03;4956284;29;20050;-84
2022/12/27 01:09:51;;;;;;;13.25;6.15;;;;;;;1.27;100.00;102215.72;4956157;29;20486;-84
2022/12/27 01:12:16;;;;;;;12.13;5.93;;;;;;;1.40;100.00;102240.31;4955931;29;20077;-83
2022/12/27 01:14:42;;;;;;;15.20;6.00;;;;;;;1.21;100.00;102213.22;4955978;29;20023;-86
2022/12/27 01:17:07;;;;;;;16.42;6.05;;;;;;;1.13;100.00;102200.50;4955778;29;20043;-83
2022/12/27 01:19:36;;;;;;;15.20;6.15;;;;;;;1.15;100.00;102210.69;4955735;29;20408;-84
2022/12/27 01:22:02;;;;;;;12.45;5.88;;;;;;;1.31;100.00;102237.78;4955790;29;20038;-84
2022/12/27 01:24:28;;;;;;;11.80;5.47;;;;;;;1.11;100.00;102214.09;4955802;29;20024;-82
2022/12/27 01:26:53;;;;;;;17.10;6.65;;;;;;;1.32;100.00;102248.81;4955579;29;20106;-84
2022/12/27 01:29:19;;;;;;;14.05;5.47;;;;;;;1.31;100.00;102255.63;4955764;29;20023;-86
2022/12/27 01:31:44;;;;;;;11.15;5.93;;;;;;;1.22;100.00;102242.06;4955485;29;20023;-83
2022/12/27 01:34:09;;;;;;;11.85;5.32;;;;;;;1.31;100.00;102258.16;4955525;29;20161;-84
2022/12/27 01:36:35;;;;;;;13.55;6.53;;;;;;;0.92;100.00;102199.69;4955656;29;20440;-84
2022/12/27 01:39:00;;;;;;;13.43;6.10;;;;;;;1.31;100.00;102259.84;4955771;29;20533;-83
2022/12/27 01:44:39;;;;;;;11.35;5.60;;;;;;;1.29;100.00;102277.69;4955764;29;20129;-80
2022/12/27 01:47:13;;;;;;;14.27;5.93;;;;;;;0.94;100.00;102228.50;4955084;29;20245;-80
2022/12/27 01:49:43;;;;;;;13.55;6.22;;;;;;;0.85;100.00;102216.66;4937892;29;20480;-83
2022/12/27 01:52:10;;;;;;;12.73;5.53;;;;;;;1.22;100.00;102278.53;4955417;29;20058;-80
2022/12/27 01:54:35;;;;;;;12.35;5.80;;;;;;;1.24;100.00;102281.91;4955042;29;20023;-83
2022/12/27 01:57:01;;;;;;;14.45;6.07;;;;;;;1.26;100.00;102285.28;4955063;29;20041;-85
2022/12/27 01:59:27;;;;;;;12.48;5.40;;;;;;;1.27;100.00;102286.13;4955016;29;20059;-81
2022/12/27 02:01:52;;;;;;;13.25;6.07;;;;;;;1.26;100.00;102285.28;4955169;29;20038;-84
2022/12/27 02:04:22;;;;;;;13.32;5.50;;;;;;;1.27;100.00;102284.44;4955210;29;20035;-80
2022/12/27 02:06:48;;;;;;;15.93;6.32;;;;;;;1.33;100.00;102291.22;4955036;29;20041;-81
2022/12/27 02:09:28;;;;;;;12.48;5.47;;;;;;;1.29;100.00;102282.75;4955068;29;20106;-79
2022/12/27 02:11:55;;;;;;;14.75;5.32;;;;;;;1.32;100.00;102282.75;4954980;29;20042;-81
2022/12/27 02:14:30;;;;;;;14.77;5.85;;;;;;;1.39;100.00;102283.59;4937762;29;20361;-80
2022/12/27 02:16:58;;;;;;;15.30;5.53;;;;;;;1.53;100.00;102296.28;4954701;29;20038;-80
2022/12/27 02:19:46;;;;;;;10.63;5.38;;;;;;;1.51;100.00;102283.56;4954897;29;20035;-81
2022/12/27 02:24:01;;;;;;;16.00;5.93;;;;;;;1.52;100.00;102297.16;4954821;29;20495;-80
2022/12/27 02:25:33;;;;;;;14.50;6.18;;;;;;;1.56;100.00;102296.28;4954720;29;20065;-86
2022/12/27 02:28:20;;;;;;;16.38;5.32;;;;;;;1.58;100.00;102292.91;4954978;29;20078;-84
2022/12/27 02:30:49;;;;;;;15.93;6.05;;;;;;;1.56;100.00;102296.28;4954754;29;20063;-82
2022/12/27 02:33:20;;;;;;;14.18;5.30;;;;;;;1.53;100.00;102299.69;4954781;29;20416;-79
2022/12/27 02:36:02;;;;;;;13.73;5.28;;;;;;;1.26;100.00;102253.91;4954877;29;20420;-86
2022/12/27 02:38:32;;;;;;;14.40;4.88;;;;;;;1.23;100.00;102270.03;4955087;29;20035;-86
2022/12/27 02:55:19;;;;;;;12.70;4.82;;;;;;;1.35;100.00;102310.72;4954523;29;20047;-85
2022/12/27 02:58:15;;;;;;;16.25;5.68;;;;;;;1.29;100.00;102320.09;4954737;29;20035;-86
2022/12/27 03:04:08;;;;;;;16.48;5.18;;;;;;;1.30;100.00;102311.59;4895233;29;20534;-86
2022/12/27 03:06:50;;;;;;;13.98;5.50;;;;;;;1.34;100.00;102309.03;4895596;29;20584;-86
2022/12/27 03:15:54;;;;;;;13.18;5.53;;;;;;;1.50;100.00;102306.50;4895298;29;20105;-86
2022/12/27 03:18:36;;;;;;;15.43;5.40;;;;;;;1.58;100.00;102303.09;4895121;29;20036;-86
2022/12/27 03:26:49;;;;;;;17.42;5.45;;;;;;;1.64;100.00;102309.84;4842253;29;20034;-85
2022/12/27 03:34:54;;;;;;;19.33;6.05;;;;;;;1.62;100.00;102321.72;4843134;29;20124;-85
2022/12/27 03:40:33;;;;;;;11.15;4.88;;;;;;;1.58;100.00;102335.34;4847610;29;20041;-84
2022/12/27 03:43:09;;;;;;;19.98;4.88;;;;;;;1.61;100.00;102343.81;4861172;29;20052;-84
2022/12/27 03:48:47;;;;;;;16.23;5.20;;;;;;;1.79;100.00;102340.38;4861227;29;20092;-84
2022/12/27 03:51:14;;;;;;;15.52;6.15;;;;;;;1.92;100.00;102325.91;4861116;29;20133;-85
2022/12/27 03:53:43;;;;;;;12.82;5.70;;;;;;;1.99;100.00;102319.94;4861299;29;20467;-86
2022/12/27 03:56:10;;;;;;;14.35;6.00;;;;;;;1.97;100.00;102319.94;4860959;29;20054;-85
2022/12/27 03:58:35;;;;;;;14.55;6.30;;;;;;;1.97;100.00;102332.69;4860976;29;20041;-86
2022/12/27 04:01:00;;;;;;;16.48;5.72;;;;;;;1.97;100.00;102335.25;4860797;29;20099;-84
2022/12/27 04:03:26;;;;;;;13.32;5.45;;;;;;;1.99;100.00;102337.78;4920358;29;20053;-84
2022/12/27 04:05:51;;;;;;;16.10;5.28;;;;;;;2.03;100.00;102346.25;4957114;29;20061;-84
2022/12/27 04:35:36;;;;;;;16.58;5.50;;;;;;;1.64;100.00;102331.06;4956582;29;20038;-85
2022/12/27 04:38:01;;;;;;;14.38;5.85;;;;;;;1.67;100.00;102350.56;4955301;28;20023;-79
2022/12/27 04:57:02;;;;;;;13.15;5.05;;;;;;;1.83;100.00;102364.13;4956569;29;20062;-80
2022/12/27 05:02:12;;;;;;;15.23;4.43;;;;;;;1.90;100.00;102351.38;4956357;29;20494;-81
2022/12/27 05:04:41;;;;;;;12.23;3.78;;;;;;;1.92;100.00;102361.56;4956043;29;20031;-86
2022/12/27 05:15:21;;;;;;;14.13;5.32;;;;;;;1.57;100.00;102319.19;4956378;29;20061;-80
2022/12/27 05:17:47;;;;;;;15.25;4.80;;;;;;;1.83;100.00;102357.34;4955814;29;20114;-81
2022/12/27 05:20:12;;;;;;;15.95;5.82;;;;;;;1.78;100.00;102366.69;4955908;29;20023;-81
2022/12/27 05:25:33;;;;;;;17.02;5.47;;;;;;;1.76;100.00;102365.81;4955907;29;20049;-80
2022/12/27 05:28:02;;;;;;;17.67;6.18;;;;;;;1.68;100.00;102365.88;4938081;29;20121;-81
2022/12/27 05:30:28;;;;;;;16.65;6.40;;;;;;;1.47;100.00;102330.22;4955647;29;20463;-80
2022/12/27 05:32:54;;;;;;;14.93;5.55;;;;;;;1.53;100.00;102339.56;4955638;29;20035;-81
2022/12/27 05:35:19;;;;;;;17.95;6.75;;;;;;;1.80;100.00;102387.91;4937907;29;20039;-81
2022/12/27 05:37:45;;;;;;;15.05;5.22;;;;;;;1.80;100.00;102398.09;4955437;29;20027;-81
2022/12/27 05:40:11;;;;;;;14.00;6.32;;;;;;;1.57;100.00;102361.63;4955184;29;20119;-81
2022/12/27 05:42:36;;;;;;;21.35;5.93;;;;;;;1.72;100.00;102393.00;4955421;29;20095;-80
2022/12/27 05:45:02;;;;;;;15.00;5.30;;;;;;;1.68;100.00;102405.75;4955594;29;20031;-81
2022/12/27 05:47:27;;;;;;;14.77;5.07;;;;;;;1.72;100.00;102413.38;4955331;29;20082;-81
2022/12/27 05:49:54;;;;;;;13.68;4.70;;;;;;;1.72;100.00;102415.94;4955186;28;20062;-82
2022/12/27 05:52:19;;;;;;;12.90;4.82;;;;;;;1.66;100.00;102403.19;4954944;29;20067;-79
2022/12/27 05:54:44;;;;;;;13.55;4.88;;;;;;;1.78;100.00;102412.53;4954999;28;20110;-81
2022/12/27 05:57:10;;;;;;;13.60;4.57;;;;;;;1.84;100.00;102416.75;4955305;29;20063;-80
2022/12/27 05:59:35;;;;;;;15.63;4.43;;;;;;;1.86;100.00;102420.16;4955164;29;20038;-82
2022/12/27 06:02:00;;;;;;;16.35;4.97;;;;;;;1.91;100.00;102416.75;4955222;29;20054;-80
2022/12/27 06:04:26;;;;;;;13.88;4.53;;;;;;;1.98;100.00;102410.81;4955166;29;20059;-86
2022/12/27 06:06:51;;;;;;;18.25;5.38;;;;;;;2.09;100.00;102407.38;4954809;29;20390;-81
2022/12/27 06:09:16;;;;;;;20.63;7.32;;;;;;;2.23;100.00;102401.38;4937873;29;20019;-80
2022/12/27 06:11:42;;;;;;;14.35;6.68;;;;;;;2.09;100.00;102353.88;4955276;29;20027;-85
2022/12/27 06:14:07;;;;;;;15.02;5.85;;;;;;;2.51;100.00;102401.28;4955238;29;20039;-83
2022/12/27 06:16:32;;;;;;;18.65;7.63;;;;;;;2.36;100.00;102380.94;4955068;29;20023;-83
2022/12/27 06:18:58;;;;;;;15.25;7.00;;;;;;;2.23;100.00;102375.06;4955053;29;20098;-83
2022/12/27 06:21:23;;;;;;;15.18;6.38;;;;;;;2.33;100.00;102417.50;4954733;29;20031;-84
2022/12/27 06:23:49;;;;;;;16.08;6.38;;;;;;;2.22;100.00;102417.53;4954972;29;20031;-85
2022/12/27 06:26:16;;;;;;;16.02;6.45;;;;;;;2.12;100.00;102430.31;4955067;29;20031;-83
2022/12/27 06:28:41;;;;;;;14.13;5.50;;;;;;;2.01;100.00;102431.19;4955229;29;20059;-81
2022/12/27 06:31:07;;;;;;;15.60;6.10;;;;;;;1.84;100.00;102421.84;4955058;29;20094;-81
2022/12/27 06:33:32;;;;;;;15.70;7.50;;;;;;;1.64;100.00;102396.41;4954973;29;20034;-80
2022/12/27 06:35:58;;;;;;;17.98;7.70;;;;;;;1.72;100.00;102426.13;4954837;29;20031;-80
2022/12/27 06:38:24;;;;;;;19.38;7.90;;;;;;;1.44;100.00;102401.50;4954676;29;20506;-81
2022/12/27 06:40:49;;;;;;;22.83;9.10;;;;;;;1.36;100.00;102388.78;4955661;29;20035;-85
2022/12/27 06:43:15;;;;;;;17.08;8.63;;;;;;;1.41;100.00;102393.88;4955119;29;20148;-85
2022/12/27 06:45:40;;;;;;;18.25;8.75;;;;;;;1.24;100.00;102378.59;4937165;29;20074;-86
2022/12/27 06:48:05;;;;;;;19.30;8.68;;;;;;;1.59;100.00;102432.06;4954688;29;20015;-85
2022/12/27 06:50:31;;;;;;;20.45;8.38;;;;;;;1.42;100.00;102426.97;4954676;29;20483;-85
2022/12/27 06:52:56;;;;;;;17.52;7.45;;;;;;;1.46;100.00;102439.69;4954737;29;20030;-85
2022/12/27 06:55:22;;;;;;;17.38;7.47;;;;;;;1.25;100.00;102428.66;4954522;29;20380;-85
2022/12/27 06:57:47;;;;;;;16.10;7.00;;;;;;;1.28;100.00;102431.22;4954869;29;20034;-86
2022/12/27 07:00:13;;;;;;;13.90;6.68;;;;;;;1.27;100.00;102437.13;4955252;28;20058;-86
2022/12/27 07:02:39;;;;;;;17.05;6.53;;;;;;;1.25;100.00;102440.53;4958075;29;20078;-85
2022/12/27 07:05:05;;;;;;;17.05;5.80;;;;;;;1.21;100.00;102441.38;4958473;29;20031;-85
2022/12/27 07:07:36;;;;;;;19.08;6.43;;;;;;;0.96;100.00;102415.03;4958370;29;20027;-85
2022/12/27 07:10:02;;;;;;;;;;;;;;;1.13;100.00;102443.91;4958815;29;20471;-85
2022/12/27 07:12:27;;;;;;;15.18;5.05;;;;;;;1.05;100.00;102448.13;4958128;29;19917;-86
2022/12/27 07:14:52;;;;;;;15.77;5.85;;;;;;;1.06;100.00;102462.53;4958316;29;20158;-85
2022/12/27 07:17:18;;;;;;;20.48;6.93;;;;;;;1.05;100.00;102459.13;4958031;29;20027;-85
2022/12/27 07:19:43;;;;;;;16.70;6.50;;;;;;;1.02;100.00;102461.69;4958417;29;20034;-84
2022/12/27 07:22:08;;;;;;;15.48;5.65;;;;;;;0.75;100.00;102414.13;4957740;29;20038;-84
2022/12/27 07:24:34;;;;;;;14.13;6.50;;;;;;;0.99;100.00;102458.28;4957947;29;20031;-84
2022/12/27 07:27:00;;;;;;;18.88;6.13;;;;;;;1.01;100.00;102460.00;4957966;29;20026;-82
2022/12/27 07:29:26;;;;;;;18.45;6.72;;;;;;;1.02;100.00;102461.69;4958226;29;20122;-83
2022/12/27 07:31:52;;;;;;;20.70;6.00;;;;;;;0.86;100.00;102437.88;4957752;29;20059;-81
2022/12/27 07:34:17;;;;;;;16.88;6.43;;;;;;;0.80;100.00;102430.25;4957759;29;20034;-81
2022/12/27 07:36:42;;;;;;;18.23;6.25;;;;;;;0.71;100.00;102422.59;4957897;29;20030;-79
2022/12/27 07:39:08;;;;;;;21.52;6.43;;;;;;;0.75;100.00;102434.47;4957429;29;20388;-80
2022/12/27 07:41:35;;;;;;;18.83;6.50;;;;;;;0.78;100.00;102442.09;4957633;29;20479;-79
2022/12/27 07:44:01;;;;;;;21.85;6.78;;;;;;;0.79;100.00;102451.44;4957800;29;20356;-79
2022/12/27 07:46:26;;;;;;;19.05;6.22;;;;;;;0.86;100.00;102463.31;4957465;29;20055;-79
2022/12/27 07:48:54;;;;;;;14.10;5.88;;;;;;;0.92;100.00;102477.78;4957745;29;20058;-82
2022/12/27 07:51:20;;;;;;;17.10;6.32;;;;;;;0.56;100.00;102425.06;4957532;29;20039;-80
2022/12/27 07:53:48;;;;;;;16.48;6.25;;;;;;;0.74;100.00;102460.75;4957403;29;20035;-79
2022/12/27 07:56:16;;;;;;;16.92;6.25;;;;;;;0.88;100.00;102485.38;4957301;29;20042;-80
2022/12/27 07:58:44;;;;;;;17.05;6.50;;;;;;;0.89;100.00;102484.53;4957281;29;20083;-80
2022/12/27 08:01:11;;;;;;;17.60;6.97;;;;;;;0.90;100.00;102487.09;4957643;29;20024;-79
2022/12/27 08:03:37;;;;;;;14.35;6.95;;;;;;;0.85;100.00;102484.50;4957303;29;20027;-82
2022/12/27 08:06:03;;;;;;;20.15;7.35;;;;;;;0.91;100.00;102486.25;4957390;29;20028;-79
2022/12/27 08:08:36;;;;;;;20.45;7.20;;;;;;;0.93;100.00;102491.31;4957117;29;20110;-82
2022/12/27 08:11:01;;;;;;;21.90;7.45;;;;;;;0.89;100.00;102484.53;4956985;28;20038;-79
2022/12/27 08:13:26;;;;;;;20.42;7.03;;;;;;;0.75;100.00;102459.91;4957613;29;20099;-79
2022/12/27 08:15:53;;;;;;;24.83;8.13;;;;;;;1.03;100.00;102504.09;4957062;29;20024;-78
2022/12/27 08:18:18;;;;;;;16.10;7.63;;;;;;;1.03;100.00;102496.44;4953231;29;20560;-75
2022/12/27 08:20:44;;;;;;;22.10;7.50;;;;;;;0.87;100.00;102466.72;4921083;29;20138;-84
2022/12/27 08:23:09;;;;;;;19.30;8.10;;;;;;;0.94;100.00;102481.16;4937961;29;20043;-76
2022/12/27 08:25:34;;;;;;;18.45;7.25;;;;;;;1.15;100.00;102511.75;4937721;29;20035;-78
2022/12/27 08:28:09;;;;;;;16.13;7.78;;;;;;;1.19;100.00;102516.88;4937492;29;20035;-77
2022/12/27 08:30:34;;;;;;;24.15;7.88;;;;;;;1.04;100.00;102492.22;4937746;29;20028;-77
2022/12/27 08:33:01;;;;;;;22.00;7.40;;;;;;;1.26;100.00;102514.31;4949409;29;20019;-78
2022/12/27 08:35:26;;;;;;;19.73;8.10;;;;;;;1.32;100.00;102521.13;4956904;29;20027;-74
2022/12/27 08:37:51;;;;;;;16.42;8.07;;;;;;;1.34;100.00;102525.38;4956882;29;20023;-80
2022/12/27 08:40:17;;;;;;;19.23;8.35;;;;;;;1.35;100.00;102524.53;4956693;29;20027;-78
2022/12/27 08:42:42;;;;;;;20.58;7.55;;;;;;;1.11;100.00;102478.69;4956415;29;20114;-78
2022/12/27 08:45:08;;;;;;;23.35;8.52;;;;;;;1.39;100.00;102516.06;4956891;29;20115;-80
2022/12/27 08:47:33;;;;;;;21.70;9.25;;;;;;;1.42;100.00;102507.59;4956838;29;20467;-86
2022/12/27 08:49:58;;;;;;;22.88;8.77;;;;;;;1.45;100.00;102499.94;4956688;29;20027;-77
2022/12/27 08:52:24;;;;;;;19.70;9.15;;;;;;;1.22;100.00;102460.88;4956794;29;20459;-81
2022/12/27 08:54:49;;;;;;;17.95;9.05;;;;;;;1.52;100.00;102496.56;4938697;29;20126;-82
2022/12/27 08:57:15;;;;;;;21.98;8.70;;;;;;;1.40;100.00;102471.94;4956396;29;20039;-81
2022/12/27 08:59:40;;;;;;;23.52;9.77;;;;;;;1.63;100.00;102505.06;4956400;29;20031;-82
2022/12/27 09:02:09;;;;;;;26.90;10.63;;;;;;;1.67;100.00;102505.91;4956484;29;20095;-83
2022/12/27 09:04:35;;;;;;;23.30;9.93;;;;;;;1.68;100.00;102508.47;4956498;29;20058;-83
2022/12/27 09:07:00;;;;;;;22.65;9.15;;;;;;;1.75;100.00;102501.66;4956418;29;20024;-83
2022/12/27 09:09:25;;;;;;;18.92;9.13;;;;;;;1.76;100.00;102495.72;4955921;29;20034;-83
2022/12/27 09:11:51;;;;;;;21.80;10.15;;;;;;;1.52;100.00;102452.44;4956251;29;20067;-82
2022/12/27 09:14:16;;;;;;;20.52;9.80;;;;;;;1.59;100.00;102467.72;4956151;29;20085;-82
2022/12/27 09:16:41;;;;;;;20.55;9.77;;;;;;;1.88;100.00;102503.38;4956403;29;20464;-83
2022/12/27 09:19:07;;;;;;;25.30;9.60;;;;;;;1.93;100.00;102511.84;4956245;29;20122;-80
2022/12/27 09:21:32;;;;;;;23.73;10.15;;;;;;;1.85;100.00;102482.13;4956100;29;20030;-82
2022/12/27 09:23:58;;;;;;;20.90;9.32;;;;;;;2.04;100.00;102511.00;4955312;28;20031;-80
2022/12/27 09:26:26;;;;;;;24.02;10.05;;;;;;;2.08;100.00;102511.03;4955627;29;20535;-80
2022/12/27 09:28:52;;;;;;;19.52;9.45;;;;;;;2.11;100.00;102508.47;4955721;29;20038;-79
2022/12/27 09:31:19;;;;;;;17.80;9.65;;;;;;;1.96;100.00;102488.91;4955876;29;20023;-79
2022/12/27 09:33:44;;;;;;;23.23;9.85;;;;;;;2.07;100.00;102493.19;4955797;29;20097;-81
2022/12/27 09:36:12;;;;;;;22.42;10.07;;;;;;;2.24;100.00;102527.97;4955845;29;20491;-82
2022/12/27 09:38:39;;;;;;;20.02;8.70;;;;;;;2.28;100.00;102516.09;4955389;29;20068;-81
2022/12/27 09:41:25;;;;;;;22.25;8.98;;;;;;;2.25;100.00;102516.06;4938372;29;20116;-82
2022/12/27 09:44:04;;;;;;;16.05;8.73;;;;;;;2.35;100.00;102527.94;4955385;29;20510;-82
2022/12/27 09:46:39;;;;;;;20.83;9.77;;;;;;;2.11;100.00;102484.69;4955637;29;20020;-81
2022/12/27 09:49:10;;;;;;;21.25;9.00;;;;;;;2.34;100.00;102518.59;4955641;29;20031;-81
2022/12/27 09:51:46;;;;;;;20.35;9.50;;;;;;;2.47;100.00;102522.00;4955426;29;20039;-79
2022/12/27 09:54:21;;;;;;;17.98;9.18;;;;;;;2.52;100.00;102527.94;4955311;29;20480;-79
2022/12/27 09:56:47;;;;;;;22.73;10.55;;;;;;;2.57;100.00;102519.44;4954933;29;20051;-77
2022/12/27 09:59:23;;;;;;;16.42;9.15;;;;;;;2.26;100.00;102454.94;4955465;29;20122;-84
2022/12/27 10:01:49;;;;;;;18.75;8.70;;;;;;;2.64;100.00;102517.69;4955353;29;20487;-79
2022/12/27 10:04:16;;;;;;;14.60;8.13;;;;;;;2.70;100.00;102520.22;4955342;29;20102;-80
2022/12/27 10:06:47;;;;;;;19.70;8.02;;;;;;;2.73;100.00;102527.00;4955066;29;20034;-80
2022/12/27 10:09:55;;;;;;;20.20;8.13;;;;;;;2.76;100.00;102529.59;4955298;29;20027;-80
2022/12/27 10:12:58;;;;;;;17.33;8.30;;;;;;;2.82;100.00;102529.53;4937342;29;20043;-80
2022/12/27 10:15:31;;;;;;;14.52;8.30;;;;;;;2.87;100.00;102530.38;4955067;29;20498;-80
2022/12/27 10:18:21;;;;;;;16.73;7.72;;;;;;;2.92;100.00;102546.50;4955296;29;20106;-82
2022/12/27 10:20:46;;;;;;;16.30;8.10;;;;;;;2.96;100.00;102537.16;4955036;29;20031;-82
2022/12/27 10:23:18;;;;;;;17.67;8.65;;;;;;;2.70;100.00;102484.53;4954804;29;20031;-82
2022/12/27 10:25:45;;;;;;;18.20;9.15;;;;;;;3.05;100.00;102522.66;4954819;29;20492;-82
2022/12/27 10:28:24;;;;;;;20.52;8.85;;;;;;;2.56;100.00;102441.22;4954937;29;20023;-82
2022/12/27 10:30:51;;;;;;;14.23;7.95;;;;;;;3.13;100.00;102520.03;4955095;29;20486;-81
2022/12/27 10:33:25;;;;;;;16.25;7.82;;;;;;;3.19;100.00;102522.56;4954774;29;20094;-83
2022/12/27 10:35:51;;;;;;;16.35;7.90;;;;;;;3.05;100.00;102492.03;4958236;28;20046;-83
2022/12/27 10:38:17;;;;;;;14.75;7.25;;;;;;;3.26;100.00;102513.19;4958862;29;20027;-82
2022/12/27 10:41:25;;;;;;;15.95;7.30;;;;;;;3.38;100.00;102529.28;4958834;29;20035;-83
2022/12/27 10:43:52;;;;;;;15.10;7.53;;;;;;;3.45;100.00;102530.09;4959013;29;20514;-83
2022/12/27 10:46:21;;;;;;;13.25;7.38;;;;;;;3.33;100.00;102504.63;4958983;29;20381;-82
2022/12/27 10:49:04;;;;;;;14.85;6.22;;;;;;;3.55;100.00;102534.28;4958657;29;20054;-82
2022/12/27 10:51:38;;;;;;;14.32;6.97;;;;;;;3.59;100.00;102540.22;4958835;29;20481;-82
2022/12/27 10:54:12;;;;;;;15.27;7.05;;;;;;;3.59;100.00;102523.19;4958818;29;20035;-83
2022/12/27 10:56:40;;;;;;;15.02;7.03;;;;;;;3.76;100.00;102538.41;4958051;29;20047;-83
2022/12/27 10:59:27;;;;;;;13.88;6.68;;;;;;;3.78;100.00;102535.84;4947903;23;20178;-84
2022/12/27 11:01:59;;;;;;;15.80;6.88;;;;;;;3.79;100.00;102543.47;4958369;29;20031;-83
2022/12/27 11:07:30;;;;;;;15.30;5.40;;;;;;;3.74;100.00;102530.75;4965604;23;20001;-83
2022/12/27 11:10:37;;;;;;;14.65;6.85;;;;;;;2.33;100.00;102304.50;4933625;29;20036;-81
2022/12/27 11:13:30;;;;;;;12.02;6.15;;;;;;;2.52;100.00;102336.69;4899117;29;20032;-82
2022/12/27 11:16:36;;;;;;;12.57;6.28;;;;;;;3.66;100.00;102518.91;4898709;29;20056;-81
2022/12/27 11:19:04;;;;;;;15.80;6.30;;;;;;;2.37;100.00;102296.84;4898970;29;20064;-80
2022/12/27 11:21:39;;;;;;;14.80;6.68;;;;;;;2.88;100.00;102386.66;4898812;29;20073;-81
2022/12/27 11:24:04;;;;;;;12.68;6.88;;;;;;;2.84;100.00;102373.03;4899036;29;20040;-80
2022/12/27 11:26:54;;;;;;;17.80;6.75;;;;;;;3.12;100.00;102427.31;4898743;29;20088;-82
2022/12/27 11:29:31;;;;;;;12.98;6.80;;;;;;;3.15;100.00;102429.03;4883055;29;20065;-81
2022/12/27 11:32:05;;;;;;;14.65;6.50;;;;;;;3.56;100.00;102494.28;4898833;29;20416;-81
2022/12/27 11:34:35;;;;;;;14.88;6.80;;;;;;;3.72;100.00;102513.72;4899088;29;20430;-82
2022/12/27 11:37:18;;;;;;;12.05;7.07;;;;;;;3.76;100.00;102512.84;4898674;29;20036;-82
2022/12/27 11:39:50;;;;;;;13.32;5.65;;;;;;;3.79;100.00;102509.41;4898880;29;20474;-81
2022/12/27 11:42:20;;;;;;;14.35;6.13;;;;;;;3.81;100.00;102508.53;4898416;29;20072;-82
2022/12/27 11:44:58;;;;;;;16.40;6.68;;;;;;;3.83;100.00;102511.91;4935094;29;20036;-82
2022/12/27 11:47:34;;;;;;;14.48;6.50;;;;;;;3.84;100.00;102511.09;4937443;29;20086;-83
2022/12/27 11:50:24;;;;;;;15.48;6.47;;;;;;;3.85;100.00;102501.72;4938622;29;20498;-83
2022/12/27 11:52:58;;;;;;;13.27;5.88;;;;;;;3.71;100.00;102469.44;4941367;29;20027;-82
2022/12/27 11:55:39;;;;;;;12.73;5.75;;;;;;;3.83;100.00;102496.59;4957725;29;20111;-79
2022/12/27 11:58:42;;;;;;;19.90;6.35;;;;;;;3.83;100.00;102490.63;4957233;29;20031;-79
2022/12/27 12:01:32;;;;;;;12.57;6.05;;;;;;;3.81;100.00;102492.38;4957685;29;20046;-82
2022/12/27 12:04:05;;;;;;;15.85;6.07;;;;;;;3.79;100.00;102491.53;4957494;29;20467;-82
2022/12/27 12:07:16;;;;;;;10.65;5.40;;;;;;;3.64;100.00;102462.72;5009609;23;20141;-80
2022/12/27 12:09:54;;;;;;;10.07;5.57;;;;;;;3.70;100.00;102470.31;4957378;29;20086;-81
2022/12/27 12:13:05;;;;;;;12.13;5.80;;;;;;;3.78;100.00;102475.34;4957224;29;20105;-81
2022/12/27 12:15:46;;;;;;;14.73;5.95;;;;;;;3.87;100.00;102482.09;4957280;29;20487;-81
2022/12/27 12:18:26;;;;;;;13.85;6.45;;;;;;;3.91;100.00;102469.25;4957215;29;20395;-81
2022/12/27 12:21:01;;;;;;;15.57;5.47;;;;;;;3.96;100.00;102469.25;4957112;29;20038;-81
2022/12/27 12:23:39;;;;;;;16.08;6.15;;;;;;;4.01;100.00;102470.03;4956911;29;20467;-81
2022/12/27 12:26:21;;;;;;;14.55;5.80;;;;;;;3.85;100.00;102436.13;4956908;29;20058;-79
2022/12/27 12:29:21;;;;;;;14.50;5.60;;;;;;;4.10;100.00;102474.22;4956759;29;20055;-80
2022/12/27 12:32:03;;;;;;;13.48;6.03;;;;;;;4.12;100.00;102465.66;4860286;29;20054;-81
2022/12/27 12:34:35;;;;;;;;;;;;;;;4.13;100.00;102464.81;4861130;29;20072;-80
2022/12/27 12:37:09;;;;;;;13.45;6.68;;;;;;;4.17;100.00;102463.91;4860513;29;20281;-80
2022/12/27 12:39:56;;;;;;;13.13;5.75;;;;;;;4.22;100.00;102466.41;4860340;29;20128;-80
2022/12/27 12:42:49;;;;;;;14.70;6.28;;;;;;;4.24;100.00;102454.47;4860505;29;20046;-81
2022/12/27 12:45:37;;;;;;;12.73;5.68;;;;;;;4.07;100.00;102416.31;4860283;29;20098;-80
2022/12/27 12:48:23;;;;;;;15.07;6.53;;;;;;;4.22;100.00;102425.50;4860544;29;20445;-83
2022/12/27 12:51:03;;;;;;;13.25;5.57;;;;;;;4.36;100.00;102436.44;4860606;29;20122;-83
2022/12/27 12:53:40;;;;;;;10.70;5.47;;;;;;;4.47;100.00;102426.94;4860235;29;20494;-81
2022/12/27 12:56:37;;;;;;;16.02;5.20;;;;;;;4.57;100.00;102427.66;4860340;29;20068;-80
2022/12/27 12:59:21;;;;;;;12.98;5.53;;;;;;;4.70;100.00;102418.94;4844572;29;20102;-81
2022/12/27 13:01:59;;;;;;;17.02;5.57;;;;;;;4.80;100.00;102417.97;4860115;29;20173;-80
2022/12/27 13:04:48;;;;;;;12.73;5.00;;;;;;;4.87;100.00;102411.91;4860118;29;20437;-80
2022/12/27 13:07:23;;;;;;;12.00;5.03;;;;;;;4.90;100.00;102409.28;4869663;29;20123;-84
2022/12/27 13:09:57;;;;;;;11.80;5.68;;;;;;;4.91;100.00;102407.56;4956373;29;20118;-79
2022/12/27 13:12:49;;;;;;;13.65;5.10;;;;;;;4.88;100.00;102393.13;4956267;29;20399;-81
2022/12/27 13:15:35;;;;;;;7.63;4.50;;;;;;;4.85;100.00;102385.50;4956102;29;20113;-80
2022/12/27 13:18:20;;;;;;;11.18;4.65;;;;;;;4.84;100.00;102381.25;4956034;29;20042;-80
2022/12/27 13:21:00;;;;;;;10.55;4.60;;;;;;;4.80;100.00;102378.72;4956003;29;20023;-83